createdAt,value
2019-04-04T00:32:35.964Z,13.60
2019-04-04T00:35:06.470Z,13.60
2019-04-04T00:37:46.064Z,13.60
2019-04-04T00:40:16.238Z,13.70
2019-04-04T00:42:47.856Z,13.80
2019-04-04T00:45:18.245Z,13.70
2019-04-04T00:47:50.714Z,13.80
2019-04-04T00:50:28.846Z,13.80
2019-04-04T00:52:59.030Z,13.70
2019-04-04T00:55:29.314Z,13.80
2019-04-04T00:57:59.511Z,13.70
2019-04-04T01:00:30.150Z,13.80
2019-04-04T01:03:00.552Z,13.80
2019-04-04T02:49:33.478Z,13.70
2019-04-04T02:52:03.670Z,13.70
2019-04-04T02:54:33.807Z,13.70
2019-04-04T02:57:07.974Z,13.60
2019-04-04T02:59:35.557Z,13.60
2019-04-04T03:02:06.127Z,13.60
2019-04-04T03:04:36.463Z,13.70
2019-04-04T03:07:07.099Z,13.80
2019-04-04T03:09:42.046Z,13.70
2019-04-04T03:12:09.307Z,13.70
2019-04-04T03:14:42.276Z,13.60
2019-04-04T03:17:13.935Z,13.60
2019-04-04T03:19:44.689Z,13.70
2019-04-04T03:22:15.074Z,13.80
2019-04-04T03:24:45.428Z,13.80
2019-04-04T03:27:15.413Z,13.80
2019-04-04T03:29:45.556Z,13.70
2019-04-04T03:32:16.740Z,13.80
2019-04-04T03:34:50.103Z,13.80
2019-04-04T03:37:19.236Z,13.80
2019-04-04T03:39:51.887Z,13.80
2019-04-04T03:42:21.082Z,13.70
2019-04-04T03:44:53.441Z,13.70
2019-04-04T03:47:24.184Z,13.70
2019-04-04T03:49:57.732Z,13.70
2019-04-04T03:52:43.320Z,13.60
2019-04-04T03:55:28.028Z,13.70
2019-04-04T03:57:57.934Z,13.70
2019-04-04T04:00:32.279Z,13.60
2019-04-04T04:03:02.816Z,13.60
2019-04-04T04:05:36.706Z,13.60
2019-04-04T04:08:07.642Z,13.60
2019-04-04T04:10:39.035Z,13.50
2019-04-04T04:13:09.349Z,13.50
2019-04-04T04:15:39.935Z,13.40
2019-04-04T04:18:10.157Z,13.40
2019-04-04T04:20:40.222Z,13.40
2019-04-04T04:23:10.419Z,13.40
2019-04-04T04:25:42.196Z,13.30
2019-04-04T04:28:13.494Z,13.40
2019-04-04T04:30:43.548Z,13.40
2019-04-04T04:33:13.635Z,13.40
2019-04-04T04:35:43.832Z,13.40
2019-04-04T04:38:13.980Z,13.50
2019-04-04T04:40:46.862Z,13.60
2019-04-04T04:43:16.950Z,13.60
2019-04-04T04:45:48.539Z,13.80
2019-04-04T04:48:18.687Z,13.70
2019-04-04T04:50:48.759Z,13.80
2019-04-04T04:53:19.643Z,13.80
2019-04-04T04:55:49.906Z,13.70
2019-04-04T04:58:20.152Z,13.70
2019-04-04T05:00:50.160Z,13.80
2019-04-04T05:03:24.910Z,13.80
2019-04-04T05:05:54.993Z,13.90
2019-04-04T05:08:25.251Z,13.90
2019-04-04T05:10:55.381Z,13.90
2019-04-04T05:13:28.711Z,14.00
2019-04-04T05:15:59.338Z,13.90
2019-04-04T05:18:30.861Z,13.90
2019-04-04T05:21:01.850Z,13.90
2019-04-04T05:23:32.718Z,13.80
2019-04-04T05:26:03.396Z,13.80
2019-04-04T05:28:33.574Z,13.80
2019-04-04T05:31:03.581Z,13.80
2019-04-04T05:33:36.525Z,13.80
2019-04-04T05:36:06.736Z,13.80
2019-04-04T05:38:38.356Z,13.70
2019-04-04T05:41:08.502Z,13.80
2019-04-04T05:43:38.813Z,13.90
2019-04-04T05:46:16.808Z,13.90
2019-04-04T05:48:48.555Z,13.90
2019-04-04T05:51:18.794Z,14.10
2019-04-04T05:53:49.051Z,14.20
2019-04-04T05:59:23.870Z,14.20
2019-04-04T06:02:03.837Z,14.10
2019-04-04T06:04:33.617Z,14.00
2019-04-04T06:07:04.425Z,14.10
2019-04-04T06:09:35.699Z,14.10
2019-04-04T06:12:05.782Z,14.00
2019-04-04T06:14:35.930Z,14.00
2019-04-04T06:17:07.221Z,14.10
2019-04-04T06:19:37.758Z,14.10
2019-04-04T06:22:07.967Z,14.10
2019-04-04T06:24:38.222Z,14.00
2019-04-04T06:27:09.149Z,14.00
2019-04-04T06:29:40.108Z,14.00
2019-04-04T06:32:10.321Z,14.00
2019-04-04T06:34:44.304Z,14.10
2019-04-04T06:37:15.398Z,14.20
2019-04-04T06:39:49.796Z,14.10
2019-04-04T06:42:19.889Z,14.10
2019-04-04T06:44:50.089Z,14.10
2019-04-04T06:47:20.201Z,14.10
2019-04-04T06:49:50.301Z,14.10
2019-04-04T06:52:24.326Z,14.20
2019-04-04T06:54:57.377Z,14.20
2019-04-04T06:57:27.783Z,14.10
2019-04-04T06:59:59.490Z,14.10
2019-04-04T07:02:33.698Z,14.10
2019-04-04T07:05:06.311Z,14.10
2019-04-04T07:07:36.991Z,14.10
2019-04-04T07:10:07.554Z,14.00
2019-04-04T07:12:38.795Z,14.10
2019-04-04T07:15:15.567Z,14.10
2019-04-04T07:17:43.828Z,14.10
2019-04-04T07:20:16.675Z,14.10
2019-04-04T07:22:45.880Z,14.20
2019-04-04T07:25:17.570Z,14.40
2019-04-04T07:27:48.055Z,14.50
2019-04-04T07:30:18.385Z,14.50
2019-04-04T07:32:48.592Z,14.40
2019-04-04T07:38:12.486Z,14.50
2019-04-04T07:40:44.457Z,14.50
2019-04-04T07:43:19.369Z,14.60
2019-04-04T07:45:51.057Z,14.70
2019-04-04T07:48:21.296Z,14.70
2019-04-04T07:50:51.620Z,14.70
2019-04-04T07:53:22.626Z,14.80
2019-04-04T07:55:55.359Z,14.90
2019-04-04T07:58:25.526Z,15.00
2019-04-04T08:00:58.524Z,15.20
2019-04-04T08:03:28.634Z,15.30
2019-04-04T08:05:58.975Z,15.50
2019-04-04T08:08:29.196Z,15.60
2019-04-04T08:10:59.287Z,15.70
2019-04-04T08:13:29.460Z,15.90
2019-04-04T08:16:04.705Z,16.00
2019-04-04T08:18:38.003Z,16.00
2019-04-04T08:21:07.998Z,16.10
2019-04-04T08:23:40.670Z,16.20
2019-04-04T08:26:17.450Z,16.30
2019-04-04T08:28:47.650Z,16.20
2019-04-04T08:31:18.990Z,16.30
2019-04-04T08:33:49.124Z,16.30
2019-04-04T08:36:21.369Z,16.30
2019-04-04T08:38:53.654Z,16.20
2019-04-04T08:41:25.437Z,16.20
2019-04-04T08:43:58.134Z,16.20
2019-04-04T08:46:29.772Z,16.20
2019-04-04T08:49:01.289Z,16.20
2019-04-04T08:51:37.850Z,16.20
2019-04-04T08:54:26.802Z,16.00
2019-04-04T08:57:10.566Z,16.00
2019-04-04T09:00:05.474Z,16.10
2019-04-04T09:02:39.843Z,16.00
2019-04-04T09:05:33.274Z,16.00
2019-04-04T09:08:07.863Z,16.00
2019-04-04T09:10:39.411Z,16.00
2019-04-04T09:13:11.776Z,16.10
2019-04-04T09:15:41.837Z,16.10
2019-04-04T09:18:12.116Z,16.20
2019-04-04T09:20:46.867Z,16.20
2019-04-04T09:23:18.667Z,16.20
2019-04-04T09:25:50.414Z,16.30
2019-04-04T09:28:22.028Z,16.20
2019-04-04T09:30:53.875Z,16.30
2019-04-04T09:33:24.198Z,16.40
2019-04-04T09:35:59.659Z,16.40
2019-04-04T09:39:01.494Z,16.30
2019-04-04T09:41:20.394Z,16.30
2019-04-04T09:47:04.629Z,16.30
2019-04-04T09:49:23.340Z,16.40
2019-04-04T09:52:10.863Z,16.40
2019-04-04T09:54:40.857Z,16.40
2019-04-04T09:57:18.647Z,16.50
2019-04-04T09:59:52.817Z,16.50
2019-04-04T10:02:26.294Z,16.50
2019-04-04T10:04:56.212Z,16.60
2019-04-04T10:07:26.871Z,16.50
2019-04-04T10:09:57.401Z,16.40
2019-04-04T10:12:29.530Z,16.30
2019-04-04T10:15:00.188Z,16.20
2019-04-04T10:17:30.254Z,16.20
2019-04-04T10:20:00.635Z,16.20
2019-04-04T10:22:30.799Z,16.20
2019-04-04T10:25:00.874Z,16.20
2019-04-04T10:27:31.002Z,16.20
2019-04-04T10:30:01.339Z,16.10
2019-04-04T10:32:34.224Z,16.10
2019-04-04T10:35:06.437Z,16.20
2019-04-04T10:37:36.600Z,16.30
2019-04-04T10:40:08.550Z,16.30
2019-04-04T10:42:38.701Z,16.30
2019-04-04T10:45:11.169Z,16.30
2019-04-04T10:47:41.917Z,16.30
2019-04-04T10:50:13.719Z,16.30
2019-04-04T10:52:43.876Z,16.30
2019-04-04T10:55:14.637Z,16.30
2019-04-04T10:57:46.078Z,16.40
2019-04-04T11:00:24.790Z,16.40
2019-04-04T11:02:57.443Z,16.40
2019-04-04T11:05:28.233Z,16.40
2019-04-04T11:08:02.088Z,16.50
2019-04-04T11:10:31.835Z,16.50
2019-04-04T11:13:03.928Z,16.50
2019-04-04T11:15:37.529Z,16.50
2019-04-04T11:18:15.861Z,16.20
2019-04-04T11:21:15.689Z,16.10
2019-04-04T11:24:15.022Z,16.00
2019-04-04T11:37:21.355Z,15.90
2019-04-04T11:39:54.981Z,15.80
2019-04-04T11:42:37.545Z,15.90
2019-04-04T11:48:11.886Z,16.00
2019-04-04T11:50:46.122Z,15.90
2019-04-04T11:53:17.135Z,16.00
2019-04-04T11:55:53.418Z,16.00
2019-04-04T11:58:32.429Z,16.10
2019-04-04T12:01:13.991Z,16.10
2019-04-04T12:03:54.005Z,16.20
2019-04-04T12:06:25.524Z,16.30
2019-04-04T12:08:55.772Z,16.30
2019-04-04T12:11:25.906Z,16.30
2019-04-04T12:13:56.715Z,16.30
2019-04-04T12:16:26.944Z,16.30
2019-04-04T12:18:57.141Z,16.30
2019-04-04T12:21:27.187Z,16.40
2019-04-04T12:23:58.711Z,16.40
2019-04-04T12:26:29.285Z,16.50
2019-04-04T12:28:59.476Z,16.50
2019-04-04T12:31:29.530Z,16.50
2019-04-04T12:34:01.984Z,16.50
2019-04-04T12:36:31.474Z,16.50
2019-04-04T12:39:01.870Z,16.50
2019-04-04T12:41:34.128Z,16.60
2019-04-04T12:44:07.411Z,16.60
2019-04-04T12:46:37.397Z,16.60
2019-04-04T12:49:07.511Z,16.70
2019-04-04T12:51:37.646Z,16.70
2019-04-04T12:54:07.835Z,16.80
2019-04-04T12:56:37.983Z,16.80
2019-04-04T12:59:12.740Z,16.80
2019-04-04T13:01:48.009Z,16.80
2019-04-04T13:04:31.057Z,16.80
2019-04-04T13:06:54.134Z,16.90
2019-04-04T13:09:24.223Z,17.00
2019-04-04T13:11:54.410Z,17.10
2019-04-04T13:14:24.507Z,17.20
2019-04-04T13:16:54.638Z,17.30
2019-04-04T13:19:24.684Z,17.30
2019-04-04T13:21:55.007Z,17.30
2019-04-04T13:24:25.817Z,17.30
2019-04-04T13:26:55.937Z,17.40
2019-04-04T13:29:30.039Z,17.40
2019-04-04T13:32:07.573Z,17.40
2019-04-04T13:34:37.775Z,17.40
2019-04-04T13:37:17.302Z,17.40
2019-04-04T13:39:50.235Z,17.00
2019-04-04T13:42:21.428Z,16.80
2019-04-04T13:44:52.826Z,16.60
2019-04-04T13:47:24.268Z,16.40
2019-04-04T13:49:54.473Z,16.50
2019-04-04T13:52:26.447Z,16.50
2019-04-04T13:54:56.484Z,16.30
2019-04-04T13:57:26.916Z,16.20
2019-04-04T13:59:56.992Z,16.00
2019-04-04T14:02:27.428Z,15.70
2019-04-04T14:05:09.796Z,15.70
2019-04-04T14:07:32.215Z,15.50
2019-04-04T14:10:05.201Z,15.50
2019-04-04T14:12:35.553Z,15.50
2019-04-04T14:15:22.255Z,15.40
2019-04-04T14:17:54.097Z,15.50
2019-04-04T14:20:25.687Z,15.40
2019-04-04T14:23:03.610Z,15.20
2019-04-04T14:26:32.097Z,15.00
2019-04-04T14:29:04.643Z,14.80
2019-04-04T14:31:35.000Z,14.80
2019-04-04T14:34:05.243Z,14.70
2019-04-04T14:36:35.418Z,14.70
2019-04-04T14:39:33.532Z,14.70
2019-04-04T14:42:05.830Z,14.70
2019-04-04T14:44:36.211Z,14.50
2019-04-04T14:47:24.146Z,14.60
2019-04-04T14:49:54.516Z,14.60
2019-04-04T14:52:24.812Z,14.60
2019-04-04T14:54:57.106Z,14.60
2019-04-04T14:57:27.222Z,14.70
2019-04-04T15:02:51.766Z,14.80
2019-04-04T15:05:22.018Z,14.70
2019-04-04T15:07:52.245Z,14.70
2019-04-04T15:10:22.485Z,14.60
2019-04-04T15:12:52.515Z,14.50
2019-04-04T15:15:26.088Z,14.60
2019-04-04T15:17:54.914Z,14.70
2019-04-04T15:20:44.788Z,14.80
2019-04-04T15:23:14.946Z,14.80
2019-04-04T15:25:45.154Z,15.00
2019-04-04T15:28:15.232Z,14.90
2019-04-04T15:30:46.798Z,14.70
2019-04-04T15:33:16.853Z,14.60
2019-04-04T15:35:47.285Z,14.40
2019-04-04T15:38:17.624Z,14.30
2019-04-04T15:40:47.908Z,14.20
2019-04-04T15:43:18.138Z,14.10
2019-04-04T15:45:48.276Z,14.00
2019-04-04T15:48:18.467Z,13.90
2019-04-04T15:50:48.717Z,13.80
2019-04-04T15:53:18.808Z,13.80
2019-04-04T15:55:48.847Z,13.80
2019-04-04T15:58:19.042Z,13.70
2019-04-04T16:00:49.186Z,13.70
2019-04-04T16:03:19.458Z,13.70
2019-04-04T16:05:51.274Z,13.60
2019-04-04T16:08:22.494Z,13.60
2019-04-04T16:10:53.301Z,13.70
2019-04-04T16:13:23.909Z,13.70
2019-04-04T16:15:54.053Z,13.70
2019-04-04T16:18:24.261Z,13.70
2019-04-04T16:20:54.583Z,13.60
2019-04-04T16:23:24.689Z,13.60
2019-04-04T16:26:12.551Z,13.70
2019-04-04T16:28:42.758Z,13.60
2019-04-04T16:31:12.924Z,13.70
2019-04-04T16:36:35.239Z,13.80
2019-04-04T16:39:07.898Z,13.80
2019-04-04T16:41:38.113Z,13.70
2019-04-04T16:44:08.337Z,13.60
2019-04-04T16:46:38.471Z,13.60
2019-04-04T16:49:10.452Z,13.50
2019-04-04T16:51:42.311Z,13.50
2019-04-04T16:54:12.493Z,13.50
2019-04-04T16:56:42.887Z,13.60
2019-04-04T16:59:13.093Z,13.50
2019-04-04T17:01:44.834Z,13.40
2019-04-04T17:04:14.977Z,13.40
2019-04-04T17:06:45.061Z,13.50
2019-04-04T17:09:15.322Z,13.50
2019-04-04T17:11:45.503Z,13.40
2019-04-04T17:14:15.713Z,13.50
2019-04-04T17:16:48.733Z,13.40
2019-04-04T17:19:20.518Z,13.50
2019-04-04T17:21:50.645Z,13.50
2019-04-04T17:24:20.846Z,13.50
2019-04-04T17:26:50.965Z,13.50
2019-04-04T17:29:21.192Z,13.40
2019-04-04T17:31:52.575Z,13.40
2019-04-04T17:37:17.731Z,13.40
2019-04-04T17:42:41.755Z,13.50
2019-04-04T17:45:17.526Z,13.40
2019-04-04T17:47:47.823Z,13.50
2019-04-04T17:50:19.437Z,13.40
2019-04-04T17:52:58.359Z,13.40
2019-04-04T17:55:49.391Z,13.30
2019-04-04T17:58:20.879Z,13.40
2019-04-04T18:00:51.121Z,13.40
2019-04-04T18:03:25.319Z,13.40
2019-04-04T18:05:55.555Z,13.40
2019-04-04T18:08:26.642Z,13.40
2019-04-04T18:10:58.775Z,13.30
2019-04-04T18:13:29.067Z,13.20
2019-04-04T18:16:00.828Z,13.10
2019-04-04T18:18:30.826Z,12.90
2019-04-04T18:21:09.381Z,12.90
2019-04-04T18:23:39.537Z,13.00
2019-04-04T18:26:10.148Z,13.10
2019-04-04T18:28:40.205Z,12.90
2019-04-04T18:31:10.247Z,12.80
2019-04-04T18:33:41.301Z,12.80
2019-04-04T18:36:11.648Z,12.60
2019-04-04T18:38:41.914Z,12.40
2019-04-04T18:41:11.983Z,12.30
2019-04-04T18:43:42.135Z,12.00
2019-04-04T18:46:12.431Z,11.50
2019-04-04T18:48:42.589Z,11.40
2019-04-04T18:51:12.735Z,11.20
2019-04-04T18:53:42.959Z,11.30
2019-04-04T18:56:13.464Z,11.40
2019-04-04T18:58:43.968Z,11.40
2019-04-04T19:01:14.123Z,11.40
2019-04-04T19:03:44.325Z,11.30
2019-04-04T19:06:14.553Z,11.40
2019-04-04T19:08:44.615Z,11.30
2019-04-04T19:11:16.382Z,11.10
2019-04-04T19:14:03.784Z,10.90
2019-04-04T19:16:36.609Z,10.90
2019-04-04T19:19:10.047Z,10.90
2019-04-04T19:21:39.373Z,10.70
2019-04-04T19:24:13.226Z,10.50
2019-04-04T19:26:43.397Z,10.40
2019-04-04T19:29:13.454Z,10.40
2019-04-04T19:31:44.152Z,10.40
2019-04-04T19:34:14.310Z,10.40
2019-04-04T19:36:44.608Z,10.30
2019-04-04T19:39:16.655Z,10.20
2019-04-04T19:41:46.774Z,10.10
2019-04-04T19:44:17.839Z,10.10
2019-04-04T19:46:48.272Z,10.10
2019-04-04T19:49:18.343Z,10.20
2019-04-04T19:51:48.399Z,10.40
2019-04-04T19:54:19.386Z,10.50
2019-04-04T19:56:49.831Z,10.50
2019-04-04T19:59:20.108Z,10.60
2019-04-04T20:01:50.333Z,10.60
2019-04-04T20:04:21.348Z,10.70
2019-04-04T20:06:51.465Z,10.70
2019-04-04T20:09:21.534Z,10.80
2019-04-04T20:11:53.302Z,10.90
2019-04-04T20:14:26.364Z,10.80
2019-04-04T20:16:55.265Z,10.80
2019-04-04T20:19:25.464Z,10.80
2019-04-04T20:21:56.573Z,10.80
2019-04-04T20:24:27.393Z,10.80
2019-04-04T20:26:57.560Z,10.80
2019-04-04T20:29:29.157Z,10.80
2019-04-04T20:32:00.196Z,10.80
2019-04-04T20:34:30.316Z,10.80
2019-04-04T20:37:02.054Z,10.90
2019-04-04T20:39:32.301Z,10.80
2019-04-04T20:42:02.538Z,10.80
2019-04-04T20:44:33.730Z,10.80
2019-04-04T20:47:04.014Z,10.90
2019-04-04T20:49:35.409Z,10.90
2019-04-04T20:52:05.547Z,10.90
2019-04-04T20:54:39.804Z,11.00
2019-04-04T20:57:09.905Z,10.90
2019-04-04T20:59:41.803Z,10.90
2019-04-04T21:02:12.531Z,11.00
2019-04-04T21:04:45.116Z,11.00
2019-04-04T21:07:18.491Z,11.00
2019-04-04T21:09:47.912Z,11.00
2019-04-04T21:12:17.998Z,10.80
2019-04-04T21:15:07.675Z,10.80
2019-04-04T21:17:37.910Z,10.80
2019-04-04T21:20:08.132Z,10.80
2019-04-04T21:22:38.231Z,10.90
2019-04-04T21:25:08.447Z,10.90
2019-04-04T21:27:38.765Z,11.10
2019-04-04T21:30:09.962Z,11.00
2019-04-04T21:32:40.003Z,10.70
2019-04-04T21:35:11.623Z,10.50
2019-04-04T21:37:41.745Z,10.50
2019-04-04T21:40:12.105Z,10.60
2019-04-04T21:42:42.741Z,10.70
2019-04-04T21:45:15.308Z,10.70
2019-04-04T21:47:45.989Z,10.70
2019-04-04T21:50:16.918Z,10.70
2019-04-04T21:52:48.732Z,10.80
2019-04-04T21:55:19.270Z,10.90
2019-04-04T21:57:49.732Z,10.90
2019-04-04T22:00:20.939Z,10.70
2019-04-04T22:02:53.154Z,10.60
2019-04-04T22:05:30.470Z,10.50
2019-04-04T22:08:02.018Z,10.30
2019-04-04T22:10:42.542Z,10.20
2019-04-04T22:13:15.401Z,10.10
2019-04-04T22:15:49.582Z,10.00
2019-04-04T22:18:20.294Z,9.90
2019-04-04T22:20:50.317Z,9.80
2019-04-04T22:23:21.903Z,9.70
2019-04-04T22:25:54.940Z,9.60
2019-04-04T22:28:45.735Z,9.70
2019-04-04T22:31:15.931Z,9.70
2019-04-04T22:33:45.894Z,9.70
2019-04-04T22:36:16.406Z,9.70
2019-04-04T22:38:48.933Z,9.60
2019-04-04T22:41:18.806Z,9.60
2019-04-04T22:44:04.701Z,9.40
2019-04-04T22:46:36.994Z,9.50
2019-04-04T22:49:07.403Z,9.50
2019-04-04T22:51:37.917Z,9.40
2019-04-04T22:54:09.852Z,9.60
2019-04-04T22:56:45.543Z,9.60
